createdAt,value
2023-04-26T00:00:09.133Z,83.79
2023-04-26T00:01:06.835Z,83.30
2023-04-26T00:01:58.758Z,83.04
2023-04-26T00:02:51.006Z,82.93
2023-04-26T00:03:43.063Z,83.26
2023-04-26T00:04:36.305Z,84.13
2023-04-26T00:05:29.854Z,84.19
2023-04-26T00:06:24.223Z,84.88
2023-04-26T00:07:15.899Z,83.73
2023-04-26T00:08:07.440Z,84.26
2023-04-26T00:08:59.085Z,84.23
2023-04-26T00:09:54.976Z,84.94
2023-04-26T00:10:46.682Z,83.83
2023-04-26T00:11:38.093Z,84.58
2023-04-26T00:12:29.506Z,84.81
2023-04-26T00:13:23.163Z,85.48
2023-04-26T00:14:14.738Z,84.38
2023-04-26T00:15:07.668Z,84.46
2023-04-26T00:16:02.199Z,84.81
2023-04-26T00:16:53.749Z,84.87
2023-04-26T00:17:45.244Z,85.19
2023-04-26T00:18:37.495Z,85.60
2023-04-26T00:19:28.936Z,84.35
2023-04-26T00:20:20.686Z,84.61
2023-04-26T00:21:12.805Z,84.77
2023-04-26T00:22:05.536Z,84.27
2023-04-26T00:22:57.469Z,84.51
2023-04-26T00:23:48.919Z,84.21
2023-04-26T00:24:40.435Z,83.90
2023-04-26T00:25:31.929Z,84.29
2023-04-26T00:26:23.560Z,83.72
2023-04-26T00:27:15.067Z,83.42
2023-04-26T00:28:08.893Z,83.65
2023-04-26T00:29:01.335Z,83.58
2023-04-26T00:29:52.884Z,84.22
2023-04-26T00:30:47.762Z,84.19
2023-04-26T00:31:41.850Z,83.88
2023-04-26T00:32:35.210Z,84.30
2023-04-26T00:33:26.964Z,83.89
2023-04-26T00:34:18.448Z,84.00
2023-04-26T00:35:10.910Z,84.34
2023-04-26T00:36:02.385Z,84.73
2023-04-26T00:36:53.936Z,84.88
2023-04-26T00:37:46.231Z,84.42
2023-04-26T00:38:37.857Z,84.74
2023-04-26T00:39:30.083Z,85.26
2023-04-26T00:40:21.701Z,84.88
2023-04-26T00:41:14.138Z,85.63
2023-04-26T00:42:06.278Z,85.78
2023-04-26T00:42:58.561Z,85.58
2023-04-26T00:43:50.253Z,85.04
2023-04-26T00:44:42.702Z,85.39
2023-04-26T00:45:35.368Z,85.20
2023-04-26T00:46:28.868Z,85.58
2023-04-26T00:47:20.598Z,84.87
2023-04-26T00:48:12.994Z,84.82
2023-04-26T00:49:04.662Z,85.11
2023-04-26T00:49:56.736Z,85.22
2023-04-26T00:50:49.080Z,86.05
2023-04-26T00:51:40.849Z,86.41
2023-04-26T00:52:32.930Z,86.89
2023-04-26T00:53:25.252Z,85.75
2023-04-26T00:54:17.264Z,85.88
2023-04-26T00:55:09.466Z,86.47
2023-04-26T00:56:01.936Z,86.59
2023-04-26T00:56:54.493Z,86.37
2023-04-26T00:57:47.209Z,86.31
2023-04-26T00:58:38.893Z,86.94
2023-04-26T00:59:30.570Z,87.06
2023-04-26T01:00:23.669Z,87.33
2023-04-26T01:01:15.475Z,86.19
2023-04-26T01:02:07.120Z,86.23
2023-04-26T01:02:59.347Z,85.70
2023-04-26T01:03:51.262Z,86.08
2023-04-26T01:04:45.095Z,85.75
2023-04-26T01:05:38.197Z,85.80
2023-04-26T01:06:35.272Z,85.32
2023-04-26T01:07:29.562Z,85.81
2023-04-26T01:08:21.858Z,85.74
2023-04-26T01:09:15.599Z,85.85
2023-04-26T01:10:09.462Z,86.41
2023-04-26T01:11:01.448Z,86.41
2023-04-26T01:11:56.620Z,85.87
2023-04-26T01:12:48.669Z,86.05
2023-04-26T01:13:43.624Z,85.12
2023-04-26T01:14:36.764Z,84.32
2023-04-26T01:15:29.987Z,84.08
2023-04-26T01:16:23.904Z,83.67
2023-04-26T01:17:15.500Z,84.80
2023-04-26T01:18:07.065Z,85.57
2023-04-26T01:18:59.274Z,85.49
2023-04-26T01:19:54.321Z,85.08
2023-04-26T01:20:48.244Z,84.31
2023-04-26T01:21:41.057Z,85.38
2023-04-26T01:22:33.620Z,85.46
2023-04-26T01:23:25.059Z,85.50
2023-04-26T01:24:16.879Z,85.77
2023-04-26T01:25:12.101Z,86.43
2023-04-26T01:26:03.569Z,86.41
2023-04-26T01:26:56.290Z,85.96
2023-04-26T01:27:47.769Z,86.15
2023-04-26T01:28:39.266Z,86.05
2023-04-26T01:29:31.967Z,85.82
2023-04-26T01:30:23.696Z,85.73
2023-04-26T01:31:15.199Z,86.30
2023-04-26T01:32:09.724Z,86.35
2023-04-26T01:33:01.368Z,86.87
2023-04-26T01:33:52.807Z,87.18
2023-04-26T01:34:44.425Z,88.78
2023-04-26T01:35:36.034Z,88.20
2023-04-26T01:36:27.471Z,86.40
2023-04-26T01:37:18.870Z,87.00
2023-04-26T01:38:14.470Z,86.26
2023-04-26T01:39:06.387Z,86.89
2023-04-26T01:39:57.865Z,86.91
2023-04-26T01:40:49.716Z,86.96
2023-04-26T01:41:41.359Z,87.04
2023-04-26T01:42:33.032Z,87.33
2023-04-26T01:43:24.540Z,87.16
2023-04-26T01:44:16.285Z,87.11
2023-04-26T01:45:08.137Z,86.60
2023-04-26T01:46:18.294Z,86.46
2023-04-26T01:47:09.769Z,86.63
2023-04-26T01:48:01.398Z,85.13
2023-04-26T01:48:57.311Z,86.34
2023-04-26T01:49:49.049Z,86.77
2023-04-26T01:50:40.543Z,84.69
2023-04-26T01:51:32.903Z,85.71
2023-04-26T01:52:24.284Z,86.33
2023-04-26T01:53:17.117Z,85.14
2023-04-26T01:54:08.634Z,85.96
2023-04-26T01:55:00.446Z,86.44
2023-04-26T01:55:56.442Z,86.45
2023-04-26T01:56:47.932Z,86.15
2023-04-26T01:57:40.473Z,86.65
2023-04-26T01:58:32.118Z,86.82
2023-04-26T01:59:23.835Z,86.40
2023-04-26T02:00:15.439Z,86.55
2023-04-26T02:01:13.907Z,86.75
2023-04-26T02:02:05.652Z,87.37
2023-04-26T02:02:57.655Z,86.72
2023-04-26T02:03:49.549Z,86.87
2023-04-26T02:04:46.811Z,87.48
2023-04-26T02:05:38.470Z,87.70
2023-04-26T02:06:31.733Z,86.71
2023-04-26T02:07:23.258Z,86.20
2023-04-26T02:08:21.058Z,85.81
2023-04-26T02:09:12.971Z,85.67
2023-04-26T02:10:06.086Z,85.37
2023-04-26T02:10:58.841Z,86.84
2023-04-26T02:11:50.305Z,86.55
2023-04-26T02:12:44.601Z,86.78
2023-04-26T02:13:36.052Z,87.41
2023-04-26T02:14:27.557Z,87.74
2023-04-26T02:15:19.084Z,87.55
2023-04-26T02:16:10.650Z,87.17
2023-04-26T02:17:04.245Z,86.50
2023-04-26T02:17:56.066Z,87.13
2023-04-26T02:18:48.442Z,86.98
2023-04-26T02:19:40.319Z,87.10
2023-04-26T02:20:31.772Z,86.97
2023-04-26T02:21:23.456Z,87.27
2023-04-26T02:22:15.169Z,87.57
2023-04-26T02:23:06.630Z,87.72
2023-04-26T02:23:58.133Z,87.12
2023-04-26T02:24:50.241Z,86.87
2023-04-26T02:25:42.406Z,86.42
2023-04-26T02:26:34.756Z,86.66
2023-04-26T02:27:27.490Z,87.06
2023-04-26T02:28:20.823Z,87.95
2023-04-26T02:29:12.520Z,88.11
2023-04-26T02:30:05.134Z,87.96
2023-04-26T02:30:56.968Z,88.10
2023-04-26T02:31:49.135Z,87.83
2023-04-26T02:32:41.163Z,86.03
2023-04-26T02:33:33.299Z,87.16
2023-04-26T02:34:27.732Z,86.26
2023-04-26T02:35:19.359Z,87.15
2023-04-26T02:36:11.057Z,87.40
2023-04-26T02:37:02.550Z,87.43
2023-04-26T02:37:54.193Z,88.05
2023-04-26T02:38:48.583Z,88.06
2023-04-26T02:39:40.317Z,87.97
2023-04-26T02:40:32.016Z,87.62
2023-04-26T02:41:23.505Z,87.77
2023-04-26T02:42:21.340Z,88.13
2023-04-26T02:43:12.921Z,87.17
2023-04-26T02:44:04.816Z,87.21
2023-04-26T02:44:56.990Z,86.68
2023-04-26T02:45:49.426Z,85.92
2023-04-26T02:46:41.267Z,85.75
2023-04-26T02:47:36.914Z,85.84
2023-04-26T02:48:28.632Z,85.95
2023-04-26T02:49:20.150Z,86.27
2023-04-26T02:50:11.853Z,86.83
2023-04-26T02:51:03.606Z,86.90
2023-04-26T02:51:55.119Z,86.61
2023-04-26T02:52:46.622Z,86.85
2023-04-26T02:53:38.295Z,87.00
2023-04-26T02:54:29.785Z,86.69
2023-04-26T02:55:22.078Z,86.27
2023-04-26T02:56:14.071Z,86.32
2023-04-26T02:57:05.793Z,86.17
2023-04-26T02:57:57.200Z,85.91
2023-04-26T02:58:49.830Z,85.54
2023-04-26T02:59:41.554Z,86.10
2023-04-26T03:00:34.250Z,86.10
2023-04-26T03:01:26.720Z,85.75
2023-04-26T03:02:18.762Z,86.27
2023-04-26T03:03:10.884Z,86.44
2023-04-26T03:04:02.935Z,86.09
2023-04-26T03:04:56.026Z,86.36
2023-04-26T03:05:49.842Z,86.37
2023-04-26T03:06:41.527Z,86.85
2023-04-26T03:07:33.331Z,87.22
2023-04-26T03:08:24.953Z,87.15
2023-04-26T03:09:16.637Z,87.02
2023-04-26T03:10:09.794Z,87.05
2023-04-26T03:11:02.011Z,87.27
2023-04-26T03:11:53.533Z,87.92
2023-04-26T03:12:48.996Z,88.40
2023-04-26T03:13:40.409Z,88.58
2023-04-26T03:14:33.548Z,88.12
2023-04-26T03:15:25.081Z,88.62
2023-04-26T03:16:19.877Z,87.79
2023-04-26T03:17:11.884Z,87.73
2023-04-26T03:18:03.588Z,87.93
2023-04-26T03:18:55.347Z,87.49
2023-04-26T03:19:47.032Z,87.40
2023-04-26T03:20:41.221Z,87.13
2023-04-26T03:21:32.752Z,87.85
2023-04-26T03:22:24.259Z,87.83
2023-04-26T03:23:18.017Z,87.77
2023-04-26T03:24:10.002Z,87.09
2023-04-26T03:25:01.579Z,87.10
2023-04-26T03:25:53.719Z,87.30
2023-04-26T03:26:45.638Z,87.86
2023-04-26T03:27:39.512Z,88.24
2023-04-26T03:28:31.268Z,88.12
2023-04-26T03:29:22.813Z,88.28
2023-04-26T03:30:14.958Z,88.18
2023-04-26T03:31:09.175Z,87.98
2023-04-26T03:32:01.272Z,88.20
2023-04-26T03:32:53.133Z,87.91
2023-04-26T03:33:44.684Z,87.63
2023-04-26T03:34:36.304Z,88.09
2023-04-26T03:35:27.719Z,87.27
2023-04-26T03:36:19.373Z,87.40
2023-04-26T03:37:10.949Z,87.31
2023-04-26T03:38:03.691Z,87.82
2023-04-26T03:38:56.083Z,87.43
2023-04-26T03:39:47.602Z,87.25
2023-04-26T03:40:39.519Z,87.76
2023-04-26T03:41:33.339Z,87.57
2023-04-26T03:42:27.319Z,87.85
2023-04-26T03:43:19.236Z,87.68
2023-04-26T03:44:10.720Z,88.06
2023-04-26T03:45:07.551Z,87.78
2023-04-26T03:46:00.975Z,87.87
2023-04-26T03:46:52.472Z,86.95
2023-04-26T03:47:43.941Z,86.55
2023-04-26T03:48:36.039Z,86.98
2023-04-26T03:49:27.457Z,86.86
2023-04-26T03:50:20.002Z,87.46
2023-04-26T03:51:11.792Z,87.87
2023-04-26T03:52:04.042Z,87.36
2023-04-26T03:52:55.506Z,87.23
2023-04-26T03:53:48.880Z,87.15
2023-04-26T03:54:40.546Z,87.49
2023-04-26T03:55:32.070Z,87.06
2023-04-26T03:56:24.548Z,87.33
2023-04-26T03:57:18.382Z,87.19
2023-04-26T03:58:09.812Z,87.07
2023-04-26T03:59:01.410Z,87.02
2023-04-26T03:59:53.439Z,86.88
2023-04-26T04:00:46.850Z,87.10
2023-04-26T04:01:38.663Z,87.51
2023-04-26T04:02:30.554Z,87.16
2023-04-26T04:03:22.278Z,87.28
2023-04-26T04:04:14.127Z,86.85
2023-04-26T04:05:08.109Z,87.01
2023-04-26T04:05:59.764Z,87.16
2023-04-26T04:06:51.509Z,87.92
2023-04-26T04:07:42.972Z,87.62
2023-04-26T04:08:35.325Z,87.12
2023-04-26T04:09:29.241Z,87.13
2023-04-26T04:10:22.925Z,87.07
2023-04-26T04:11:16.958Z,86.90
2023-04-26T04:12:08.650Z,87.19
2023-04-26T04:13:00.334Z,86.69
2023-04-26T04:13:52.353Z,87.40
2023-04-26T04:14:43.834Z,87.92
2023-04-26T04:15:37.976Z,87.54
2023-04-26T04:16:29.803Z,87.46
2023-04-26T04:17:21.893Z,87.57
2023-04-26T04:18:14.199Z,87.60
2023-04-26T04:19:06.200Z,87.25
2023-04-26T04:19:57.789Z,87.96
2023-04-26T04:20:49.498Z,87.47
2023-04-26T04:21:43.146Z,86.83
2023-04-26T04:22:34.744Z,86.82
2023-04-26T04:23:27.407Z,87.21
2023-04-26T04:24:21.045Z,87.43
2023-04-26T04:25:15.125Z,87.09
2023-04-26T04:26:07.384Z,87.37
2023-04-26T04:27:05.141Z,87.49
2023-04-26T04:28:00.664Z,86.60
2023-04-26T04:28:55.144Z,87.00
2023-04-26T04:29:47.005Z,86.36
2023-04-26T04:30:38.574Z,87.11
2023-04-26T04:31:30.376Z,87.52
2023-04-26T04:32:24.757Z,87.56
2023-04-26T04:33:17.758Z,87.75
2023-04-26T04:34:12.167Z,88.17
2023-04-26T04:35:07.498Z,88.03
2023-04-26T04:36:00.577Z,88.27
2023-04-26T04:36:52.328Z,88.39
2023-04-26T04:37:46.485Z,88.30
2023-04-26T04:38:38.221Z,88.50
2023-04-26T04:39:31.661Z,88.15
2023-04-26T04:40:26.437Z,88.46
2023-04-26T04:41:22.276Z,88.49
2023-04-26T04:42:14.018Z,89.36
2023-04-26T04:43:06.377Z,89.06
2023-04-26T04:43:57.888Z,88.63
2023-04-26T04:44:50.537Z,88.41
2023-04-26T04:45:45.519Z,88.13
2023-04-26T04:46:40.502Z,88.53
2023-04-26T04:47:34.075Z,88.42
2023-04-26T04:48:26.220Z,88.38
2023-04-26T04:49:20.194Z,88.39
2023-04-26T04:50:14.665Z,88.19
2023-04-26T04:51:10.548Z,88.51
2023-04-26T04:52:02.258Z,87.84
2023-04-26T04:52:53.729Z,87.70
2023-04-26T04:53:45.586Z,87.90
2023-04-26T04:54:37.133Z,87.73
2023-04-26T04:55:28.596Z,87.84
2023-04-26T04:56:21.701Z,87.65
2023-04-26T04:57:13.831Z,87.76
2023-04-26T04:58:06.698Z,87.76
2023-04-26T04:58:58.945Z,87.82
2023-04-26T04:59:51.118Z,88.13
2023-04-26T05:00:43.599Z,88.40
2023-04-26T05:01:46.520Z,88.79
2023-04-26T05:02:39.721Z,88.95
2023-04-26T05:03:34.171Z,88.67
2023-04-26T05:04:27.224Z,88.47
2023-04-26T05:05:19.081Z,88.38
2023-04-26T05:06:10.585Z,88.86
2023-04-26T05:07:02.087Z,88.87
2023-04-26T05:07:53.872Z,88.08
2023-04-26T05:08:45.664Z,88.42
2023-04-26T05:09:37.497Z,87.69
2023-04-26T05:10:31.553Z,87.91
2023-04-26T05:11:23.423Z,87.08
2023-04-26T05:12:14.872Z,87.18
2023-04-26T05:13:06.563Z,87.78
2023-04-26T05:13:59.365Z,87.97
2023-04-26T05:14:51.109Z,88.07
2023-04-26T05:15:43.029Z,88.78
2023-04-26T05:16:34.696Z,88.24
2023-04-26T05:17:27.792Z,88.28
2023-04-26T05:18:22.124Z,88.25
2023-04-26T05:19:13.918Z,87.47
2023-04-26T05:20:07.983Z,87.52
2023-04-26T05:21:00.255Z,87.38
2023-04-26T05:21:57.323Z,87.76
2023-04-26T05:22:49.044Z,88.25
2023-04-26T05:23:40.485Z,88.26
2023-04-26T05:24:32.274Z,88.42
2023-04-26T05:25:26.820Z,88.07
2023-04-26T05:26:38.375Z,88.01
2023-04-26T05:27:52.917Z,88.58
2023-04-26T05:29:05.041Z,88.96
2023-04-26T05:30:06.722Z,88.43
2023-04-26T05:31:11.365Z,88.38
2023-04-26T05:32:24.068Z,87.69
2023-04-26T05:33:31.595Z,87.65
2023-04-26T05:34:38.773Z,87.34
2023-04-26T05:35:30.653Z,88.02
2023-04-26T05:36:22.129Z,88.12
2023-04-26T05:37:13.563Z,87.89
2023-04-26T05:38:05.117Z,88.30
2023-04-26T05:38:56.498Z,88.08
2023-04-26T05:39:49.023Z,88.82
2023-04-26T05:40:41.009Z,89.08
2023-04-26T05:41:34.084Z,88.90
2023-04-26T05:42:25.558Z,88.39
2023-04-26T05:43:17.284Z,89.23
2023-04-26T05:44:08.778Z,89.22
2023-04-26T05:45:01.124Z,89.00
2023-04-26T05:45:54.623Z,88.44
2023-04-26T05:46:46.744Z,88.87
2023-04-26T05:47:39.838Z,87.73
2023-04-26T05:48:33.170Z,88.32
2023-04-26T05:49:24.578Z,88.81
2023-04-26T05:50:16.449Z,89.24
2023-04-26T05:51:11.174Z,88.79
2023-04-26T05:52:03.813Z,89.74
2023-04-26T05:52:55.678Z,89.46
2023-04-26T05:53:47.133Z,88.80
2023-04-26T05:54:39.031Z,88.63
2023-04-26T05:55:31.001Z,89.12
2023-04-26T05:56:24.179Z,89.00
2023-04-26T05:57:15.934Z,89.07
2023-04-26T05:58:08.098Z,88.78
2023-04-26T05:58:59.937Z,89.07
2023-04-26T05:59:51.439Z,89.07
2023-04-26T06:00:43.364Z,89.02
2023-04-26T06:01:35.044Z,88.93
2023-04-26T06:02:27.981Z,88.51
2023-04-26T06:03:20.386Z,88.92
2023-04-26T06:04:12.593Z,88.81
2023-04-26T06:05:13.421Z,87.92
2023-04-26T06:06:08.148Z,87.57
2023-04-26T06:07:00.458Z,87.53
2023-04-26T06:07:54.505Z,87.49
2023-04-26T06:08:46.369Z,87.80
2023-04-26T06:09:38.760Z,88.17
2023-04-26T06:10:30.198Z,88.12
2023-04-26T06:11:21.894Z,88.02
2023-04-26T06:12:13.369Z,87.80
2023-04-26T06:13:10.032Z,87.92
2023-04-26T06:14:02.278Z,87.66
2023-04-26T06:14:55.923Z,87.10
2023-04-26T06:15:50.735Z,87.72
2023-04-26T06:16:43.747Z,87.93
2023-04-26T06:17:36.765Z,88.22
2023-04-26T06:18:28.661Z,87.94
2023-04-26T06:19:20.454Z,88.84
2023-04-26T06:20:12.661Z,89.59
2023-04-26T06:21:05.714Z,89.47
2023-04-26T06:21:57.550Z,89.44
2023-04-26T06:22:49.404Z,89.33
2023-04-26T06:23:41.209Z,87.73
2023-04-26T06:24:32.689Z,87.75
2023-04-26T06:25:26.493Z,87.72
2023-04-26T06:26:17.866Z,87.61
2023-04-26T06:27:09.373Z,87.29
2023-04-26T06:28:03.730Z,87.76
2023-04-26T06:28:55.718Z,87.69
2023-04-26T06:29:47.590Z,87.22
2023-04-26T06:30:41.555Z,87.11
2023-04-26T06:31:33.148Z,87.94
2023-04-26T06:32:27.346Z,87.93
2023-04-26T06:33:19.430Z,87.55
2023-04-26T06:34:11.002Z,88.00
2023-04-26T06:35:02.725Z,87.94
2023-04-26T06:35:54.234Z,88.16
2023-04-26T06:36:46.312Z,87.66
2023-04-26T06:37:39.324Z,88.09
2023-04-26T06:38:31.991Z,87.09
2023-04-26T06:39:23.955Z,87.46
2023-04-26T06:40:16.789Z,86.38
2023-04-26T06:41:08.909Z,86.86
2023-04-26T06:42:02.305Z,86.33
2023-04-26T06:43:11.993Z,86.80
2023-04-26T06:44:25.083Z,86.46
2023-04-26T06:45:17.682Z,84.56
2023-04-26T06:46:10.342Z,85.67
2023-04-26T06:47:01.857Z,85.02
2023-04-26T06:47:53.682Z,85.73
2023-04-26T06:48:48.711Z,84.86
2023-04-26T06:49:42.785Z,84.76
2023-04-26T06:50:38.969Z,84.50
2023-04-26T06:51:31.378Z,84.94
2023-04-26T06:52:22.793Z,83.97
2023-04-26T06:53:14.315Z,83.47
2023-04-26T06:54:05.915Z,83.28
2023-04-26T06:54:57.921Z,80.43
2023-04-26T06:55:49.446Z,80.02
2023-04-26T06:56:41.068Z,79.89
2023-04-26T06:57:32.534Z,79.73
2023-04-26T06:58:24.373Z,81.44
2023-04-26T06:59:15.900Z,81.09
2023-04-26T07:00:09.464Z,82.36
2023-04-26T07:01:03.408Z,80.54
2023-04-26T07:01:57.282Z,82.02
2023-04-26T07:02:51.196Z,79.66
2023-04-26T07:03:43.068Z,78.01
2023-04-26T07:04:34.935Z,79.71
2023-04-26T07:05:26.662Z,81.56
2023-04-26T07:06:18.093Z,80.52
2023-04-26T07:07:11.102Z,82.28
2023-04-26T07:08:04.829Z,80.62
2023-04-26T07:08:56.427Z,79.66
2023-04-26T07:09:48.112Z,79.83
2023-04-26T07:10:41.282Z,78.35
2023-04-26T07:11:32.923Z,79.63
2023-04-26T07:12:24.476Z,78.59
2023-04-26T07:13:15.909Z,78.99
2023-04-26T07:14:07.525Z,77.59
2023-04-26T07:14:59.178Z,76.75
2023-04-26T07:15:51.081Z,77.49
2023-04-26T07:16:42.633Z,74.79
2023-04-26T07:17:34.254Z,77.64
2023-04-26T07:18:26.173Z,75.59
2023-04-26T07:19:18.002Z,76.37
2023-04-26T07:20:12.244Z,78.34
2023-04-26T07:21:03.753Z,78.61
2023-04-26T07:21:55.183Z,76.58
2023-04-26T07:22:47.686Z,76.22
2023-04-26T07:23:42.013Z,77.41
2023-04-26T07:24:33.422Z,78.35
2023-04-26T07:25:24.786Z,77.55
2023-04-26T07:26:16.486Z,74.94
2023-04-26T07:27:07.893Z,72.76
2023-04-26T07:27:59.264Z,71.83
2023-04-26T07:28:52.322Z,74.27
2023-04-26T07:29:43.720Z,72.98
2023-04-26T07:30:35.424Z,74.63
2023-04-26T07:31:27.399Z,75.22
2023-04-26T07:32:19.011Z,73.76
2023-04-26T07:33:10.682Z,72.80
2023-04-26T07:34:02.522Z,74.42
2023-04-26T07:34:57.343Z,73.02
2023-04-26T07:36:00.966Z,70.24
2023-04-26T07:36:56.222Z,71.93
2023-04-26T07:37:50.911Z,74.80
2023-04-26T07:38:42.425Z,74.03
2023-04-26T07:39:36.382Z,71.31
2023-04-26T07:40:29.432Z,68.49
2023-04-26T07:41:21.139Z,69.55
2023-04-26T07:42:12.949Z,69.11
2023-04-26T07:43:04.526Z,67.96
2023-04-26T07:43:56.241Z,68.44
2023-04-26T07:44:48.449Z,68.37
2023-04-26T07:45:42.918Z,67.77
2023-04-26T07:46:34.977Z,70.51
2023-04-26T07:47:26.366Z,72.20
2023-04-26T07:48:17.938Z,69.84
2023-04-26T07:49:09.910Z,71.82
2023-04-26T07:50:01.506Z,72.36
2023-04-26T07:50:53.035Z,69.48
2023-04-26T07:51:45.008Z,69.40
2023-04-26T07:52:36.605Z,68.67
2023-04-26T07:53:28.031Z,67.88
2023-04-26T07:54:19.418Z,69.86
2023-04-26T07:55:11.162Z,67.24
2023-04-26T07:56:05.880Z,69.79
2023-04-26T07:56:59.598Z,66.86
2023-04-26T07:57:51.005Z,68.82
2023-04-26T07:58:42.443Z,66.94
2023-04-26T07:59:33.856Z,64.74
2023-04-26T08:00:25.484Z,66.02
2023-04-26T08:01:17.124Z,64.43
2023-04-26T08:02:08.881Z,67.92
2023-04-26T08:03:00.509Z,68.45
2023-04-26T08:03:52.840Z,65.51
2023-04-26T08:04:52.727Z,64.67
2023-04-26T08:05:45.009Z,68.28
2023-04-26T08:06:39.277Z,67.07
2023-04-26T08:07:31.042Z,65.50
2023-04-26T08:08:23.083Z,64.86
2023-04-26T08:09:15.101Z,68.02
2023-04-26T08:10:07.344Z,67.79
2023-04-26T08:10:58.826Z,66.44
2023-04-26T08:11:52.340Z,65.91
2023-04-26T08:12:43.850Z,66.39
2023-04-26T08:13:35.810Z,66.76
2023-04-26T08:14:27.306Z,66.16
2023-04-26T08:15:18.752Z,63.91
2023-04-26T08:16:10.183Z,65.21
2023-04-26T08:17:02.835Z,64.39
2023-04-26T08:17:54.681Z,63.23
2023-04-26T08:18:47.036Z,62.67
2023-04-26T08:19:45.952Z,63.59
2023-04-26T08:20:38.602Z,62.59
2023-04-26T08:21:31.143Z,66.72
2023-04-26T08:22:24.991Z,63.90
2023-04-26T08:23:16.536Z,66.72
2023-04-26T08:24:08.133Z,63.02
2023-04-26T08:24:59.512Z,58.41
2023-04-26T08:25:50.882Z,58.68
2023-04-26T08:26:42.480Z,61.04
2023-04-26T08:27:36.960Z,61.17
2023-04-26T08:28:28.651Z,60.02
2023-04-26T08:29:20.649Z,62.33
2023-04-26T08:30:12.386Z,63.58
2023-04-26T08:31:04.536Z,63.18
2023-04-26T08:31:56.530Z,62.60
2023-04-26T08:32:48.013Z,61.01
2023-04-26T08:33:39.643Z,62.05
2023-04-26T08:34:32.001Z,63.12
2023-04-26T08:35:23.471Z,61.25
2023-04-26T08:36:15.268Z,61.57
2023-04-26T08:37:11.016Z,60.09
2023-04-26T08:38:02.469Z,62.24
2023-04-26T08:38:54.584Z,58.73
2023-04-26T08:39:49.023Z,60.56
2023-04-26T08:40:43.625Z,58.16
2023-04-26T08:41:39.828Z,60.23
2023-04-26T08:42:33.230Z,56.80
2023-04-26T08:43:27.295Z,56.65
2023-04-26T08:44:23.959Z,60.83
2023-04-26T08:45:16.212Z,63.37
2023-04-26T08:46:12.527Z,58.52
2023-04-26T08:47:16.279Z,58.21
2023-04-26T08:48:14.972Z,56.59
2023-04-26T08:49:24.448Z,57.59
2023-04-26T08:50:18.941Z,57.83
2023-04-26T08:51:15.076Z,57.39
2023-04-26T08:52:15.915Z,56.99
2023-04-26T08:53:08.380Z,55.48
2023-04-26T08:54:04.837Z,56.13
2023-04-26T08:54:57.877Z,56.85
2023-04-26T08:55:50.603Z,58.33
2023-04-26T08:56:44.145Z,58.00
2023-04-26T08:57:35.829Z,57.09
2023-04-26T08:58:27.572Z,59.89
2023-04-26T08:59:23.238Z,59.09
2023-04-26T09:00:16.906Z,55.04
2023-04-26T09:01:10.287Z,61.36
2023-04-26T09:02:04.693Z,55.79
2023-04-26T09:02:56.386Z,56.78
2023-04-26T09:03:48.014Z,56.53
2023-04-26T09:04:40.385Z,58.59
2023-04-26T09:05:36.625Z,57.55
2023-04-26T09:06:28.947Z,55.95
2023-04-26T09:07:31.909Z,56.98
2023-04-26T09:08:23.805Z,55.34
2023-04-26T09:09:22.440Z,57.55
2023-04-26T09:10:22.104Z,54.75
2023-04-26T09:11:13.850Z,58.40
2023-04-26T09:12:06.119Z,57.18
2023-04-26T09:13:02.395Z,53.97
2023-04-26T09:13:54.015Z,53.84
2023-04-26T09:14:47.059Z,55.43
2023-04-26T09:15:38.842Z,56.88
2023-04-26T09:16:37.066Z,56.42
2023-04-26T09:17:37.618Z,53.64
2023-04-26T09:18:31.213Z,54.57
2023-04-26T09:19:40.428Z,55.25
2023-04-26T09:20:31.930Z,53.96
2023-04-26T09:21:23.524Z,54.38
2023-04-26T09:22:37.080Z,52.83
2023-04-26T09:23:28.546Z,54.62
2023-04-26T09:24:19.967Z,54.68
2023-04-26T09:25:27.722Z,53.25
2023-04-26T09:26:21.525Z,53.16
2023-04-26T09:27:13.039Z,52.96
2023-04-26T09:28:21.007Z,52.29
2023-04-26T09:29:15.065Z,56.61
2023-04-26T09:30:11.418Z,53.53
2023-04-26T09:31:03.022Z,53.75
2023-04-26T09:31:54.740Z,52.93
2023-04-26T09:32:54.109Z,50.64
2023-04-26T09:33:59.112Z,56.93
2023-04-26T09:34:50.544Z,52.15
2023-04-26T09:35:43.463Z,50.96
2023-04-26T09:36:58.640Z,51.15
2023-04-26T09:38:09.650Z,48.39
2023-04-26T09:39:06.407Z,50.46
2023-04-26T09:39:57.929Z,51.00
2023-04-26T09:40:51.097Z,51.45
2023-04-26T09:41:45.654Z,49.82
2023-04-26T09:42:37.206Z,55.06
2023-04-26T09:43:37.580Z,56.32
2023-04-26T09:44:31.558Z,50.71
2023-04-26T09:45:27.489Z,51.13
2023-04-26T09:46:24.892Z,52.89
2023-04-26T09:47:16.663Z,51.73
2023-04-26T09:48:30.312Z,52.98
2023-04-26T09:49:21.760Z,52.84
2023-04-26T09:50:13.216Z,57.45
2023-04-26T09:51:07.034Z,54.52
2023-04-26T09:52:07.428Z,52.19
2023-04-26T09:52:59.569Z,50.29
2023-04-26T09:53:51.251Z,50.97
2023-04-26T09:54:51.671Z,53.27
2023-04-26T09:55:43.123Z,55.46
2023-04-26T09:56:34.727Z,52.54
2023-04-26T09:57:26.279Z,53.34
2023-04-26T09:58:17.921Z,54.04
2023-04-26T09:59:11.746Z,51.51
2023-04-26T10:00:09.183Z,50.72
2023-04-26T10:01:05.522Z,50.81
2023-04-26T10:01:57.161Z,52.57
2023-04-26T10:02:49.320Z,51.75
2023-04-26T10:03:42.879Z,52.46
2023-04-26T10:04:34.802Z,52.41
2023-04-26T10:05:26.616Z,52.37
2023-04-26T10:06:18.616Z,54.47
2023-04-26T10:07:10.193Z,51.27
2023-04-26T10:08:03.717Z,55.93
2023-04-26T10:08:56.287Z,49.20
2023-04-26T10:09:49.177Z,55.25
2023-04-26T10:10:42.753Z,49.55
2023-04-26T10:11:35.268Z,50.90
2023-04-26T10:12:27.430Z,51.43
2023-04-26T10:13:19.671Z,57.15
2023-04-26T10:14:14.881Z,51.60
2023-04-26T10:15:12.827Z,49.79
2023-04-26T10:16:04.875Z,52.44
2023-04-26T10:16:57.174Z,45.90
2023-04-26T10:17:50.680Z,48.46
2023-04-26T10:18:43.434Z,47.81
2023-04-26T10:19:37.194Z,49.54
2023-04-26T10:20:31.626Z,50.62
2023-04-26T10:21:39.269Z,50.66
2023-04-26T10:22:40.021Z,47.85
2023-04-26T10:23:34.855Z,49.78
2023-04-26T10:24:28.715Z,51.64
2023-04-26T10:25:20.897Z,45.83
2023-04-26T10:26:53.361Z,45.90
2023-04-26T10:27:45.397Z,48.75
2023-04-26T10:28:46.117Z,51.73
2023-04-26T10:29:56.360Z,50.67
2023-04-26T10:30:58.226Z,51.01
2023-04-26T10:32:19.773Z,51.17
2023-04-26T10:33:13.900Z,52.11
2023-04-26T10:34:19.782Z,47.85
2023-04-26T10:35:13.353Z,48.38
2023-04-26T10:36:06.736Z,53.49
2023-04-26T10:37:21.130Z,48.44
2023-04-26T10:38:12.947Z,49.59
2023-04-26T10:39:22.949Z,47.94
2023-04-26T10:40:25.500Z,50.48
2023-04-26T10:41:31.464Z,46.58
2023-04-26T10:42:26.535Z,54.06
2023-04-26T10:43:30.171Z,49.65
2023-04-26T10:44:41.442Z,50.00
2023-04-26T10:45:32.893Z,54.25
2023-04-26T10:46:40.588Z,49.47
2023-04-26T10:47:38.994Z,45.44
2023-04-26T10:48:31.813Z,52.30
2023-04-26T10:49:26.461Z,50.67
2023-04-26T10:50:18.174Z,54.34
2023-04-26T10:51:12.576Z,51.44
2023-04-26T10:52:12.413Z,51.10
2023-04-26T10:53:04.301Z,46.78
2023-04-26T10:53:57.963Z,49.19
2023-04-26T10:54:54.833Z,48.23
2023-04-26T10:55:46.516Z,52.65
2023-04-26T10:56:37.977Z,50.71
2023-04-26T10:57:50.491Z,51.06
2023-04-26T10:58:41.894Z,47.90
2023-04-26T10:59:43.784Z,47.67
2023-04-26T11:00:43.458Z,48.00
2023-04-26T11:01:35.964Z,46.71
2023-04-26T11:02:52.894Z,47.60
2023-04-26T11:04:08.563Z,48.05
2023-04-26T11:05:02.741Z,48.89
2023-04-26T11:05:55.169Z,47.47
2023-04-26T11:06:54.129Z,48.51
2023-04-26T11:07:45.841Z,46.69
2023-04-26T11:08:37.372Z,49.05
2023-04-26T11:09:40.630Z,45.61
2023-04-26T11:10:43.477Z,44.53
2023-04-26T11:11:51.894Z,45.32
2023-04-26T11:13:03.515Z,48.40
2023-04-26T11:13:56.259Z,47.22
2023-04-26T11:14:47.700Z,46.25
2023-04-26T11:15:39.297Z,49.97
2023-04-26T11:16:31.259Z,45.34
2023-04-26T11:17:22.847Z,46.07
2023-04-26T11:18:19.569Z,43.62
2023-04-26T11:19:11.116Z,44.76
2023-04-26T11:20:11.375Z,47.33
2023-04-26T11:21:07.327Z,46.64
2023-04-26T11:22:00.826Z,45.98
2023-04-26T11:22:54.198Z,45.29
2023-04-26T11:23:55.775Z,46.42
2023-04-26T11:24:47.209Z,47.18
2023-04-26T11:25:42.253Z,46.45
2023-04-26T11:26:36.936Z,41.63
2023-04-26T11:27:28.402Z,45.46
2023-04-26T11:28:19.932Z,46.49
2023-04-26T11:29:18.644Z,48.84
2023-04-26T11:30:11.635Z,46.94
2023-04-26T11:31:04.303Z,45.63
2023-04-26T11:31:58.056Z,47.44